Time;durP1;ratioP1;P1;durP2;ratioP2;P2;SDS_P1;SDS_P2;PMS_P1;PMS_P2;Temp;Humidity;BMP_temperature;BMP_pressure;BME280_temperature;BME280_humidity;BME280_pressure;Samples;Min_cycle;Max_cycle;Signal;HPM_P1;HPM_P2
2023/05/09 00:00:48;;;;;;;2.13;1.90;;;19.60;79.80;;;;;;5042061;28;45424;-72
2023/05/09 00:03:15;;;;;;;2.30;1.85;;;19.60;80.00;;;;;;5041456;28;45450;-72
2023/05/09 00:05:42;;;;;;;2.22;1.73;;;19.50;80.00;;;;;;5041493;28;47296;-72
2023/05/09 00:08:11;;;;;;;2.20;1.90;;;19.50;80.00;;;;;;5042155;28;45269;-72
2023/05/09 00:10:37;;;;;;;2.70;1.85;;;19.50;80.20;;;;;;5041292;27;45609;-72
2023/05/09 00:13:04;;;;;;;2.28;1.90;;;19.50;80.10;;;;;;5042339;28;45243;-71
2023/05/09 00:15:31;;;;;;;2.45;1.75;;;19.50;80.00;;;;;;5041594;27;45532;-72
2023/05/09 00:17:58;;;;;;;2.28;1.85;;;19.50;80.00;;;;;;5041736;27;45217;-72
2023/05/09 00:20:25;;;;;;;2.33;1.70;;;19.50;80.00;;;;;;5042316;28;45344;-72
2023/05/09 00:22:52;;;;;;;2.33;2.08;;;19.50;80.00;;;;;;5042349;28;45418;-72
2023/05/09 00:25:20;;;;;;;2.17;1.70;;;19.50;80.00;;;;;;5041509;28;48265;-72
2023/05/09 00:27:47;;;;;;;2.47;2.03;;;19.50;79.80;;;;;;5042211;28;45327;-72
2023/05/09 00:30:13;;;;;;;3.03;2.17;;;19.50;79.80;;;;;;5041984;28;45321;-72
2023/05/09 00:32:40;;;;;;;2.40;2.00;;;19.50;79.60;;;;;;5042141;28;45585;-73
2023/05/09 00:35:08;;;;;;;3.10;2.08;;;19.60;79.70;;;;;;5041914;28;47349;-72
2023/05/09 00:37:35;;;;;;;2.47;2.00;;;19.50;79.60;;;;;;5041897;28;45819;-72
2023/05/09 00:40:04;;;;;;;2.70;2.10;;;19.60;79.60;;;;;;5041727;27;45165;-72
2023/05/09 00:42:32;;;;;;;3.03;2.25;;;19.60;79.60;;;;;;5041680;27;45456;-72
2023/05/09 00:44:59;;;;;;;3.42;2.40;;;19.60;79.60;;;;;;5041498;28;48376;-72
2023/05/09 00:47:27;;;;;;;4.13;2.83;;;19.60;80.80;;;;;;5040921;28;45402;-72
2023/05/09 00:49:55;;;;;;;3.80;2.60;;;19.60;79.90;;;;;;5041445;28;45171;-72
2023/05/09 00:52:24;;;;;;;3.85;2.38;;;19.60;79.90;;;;;;5041875;28;45285;-72
2023/05/09 00:54:51;;;;;;;3.75;2.80;;;19.50;79.90;;;;;;5041196;28;48269;-72
2023/05/09 00:57:18;;;;;;;3.45;2.70;;;19.50;79.90;;;;;;5041435;28;45220;-72
2023/05/09 00:59:46;;;;;;;3.88;2.88;;;19.50;80.00;;;;;;5041695;28;45289;-72
2023/05/09 01:02:13;;;;;;;3.38;2.60;;;19.50;80.00;;;;;;5020458;28;45576;-72
2023/05/09 01:04:40;;;;;;;3.92;2.70;;;19.50;80.00;;;;;;5026952;28;47076;-72
2023/05/09 01:07:16;;;;;;;4.15;2.72;;;19.50;80.10;;;;;;5041340;28;45250;-72
2023/05/09 01:09:49;;;;;;;4.53;2.90;;;19.50;80.00;;;;;;5041798;28;45357;-72
2023/05/09 01:12:23;;;;;;;4.43;2.83;;;19.50;79.90;;;;;;5041298;28;45269;-72
2023/05/09 01:15:00;;;;;;;3.17;2.63;;;19.50;79.80;;;;;;5040847;28;48211;-72
2023/05/09 01:17:35;;;;;;;3.28;2.30;;;19.50;79.70;;;;;;5041301;28;45376;-72
2023/05/09 01:20:10;;;;;;;3.65;2.75;;;19.50;79.70;;;;;;5033748;28;45348;-72
2023/05/09 01:22:40;;;;;;;4.10;2.70;;;19.60;79.80;;;;;;5040357;28;45398;-72
2023/05/09 01:25:20;;;;;;;3.83;2.50;;;19.50;79.60;;;;;;5041339;28;46313;-72
2023/05/09 01:27:57;;;;;;;4.13;2.45;;;19.60;79.60;;;;;;5040960;27;45344;-73
2023/05/09 01:30:26;;;;;;;3.92;2.78;;;19.60;79.80;;;;;;5038195;28;45346;-72
2023/05/09 01:32:59;;;;;;;3.88;2.67;;;19.60;79.90;;;;;;5041079;28;45290;-72
2023/05/09 01:35:29;;;;;;;3.63;2.70;;;19.60;80.00;;;;;;5040681;28;48409;-72
2023/05/09 01:37:57;;;;;;;4.75;3.10;;;19.50;80.00;;;;;;5040394;28;45736;-72
2023/05/09 01:40:30;;;;;;;4.43;2.83;;;19.50;80.10;;;;;;5040907;27;45217;-71
2023/05/09 01:43:01;;;;;;;5.70;3.20;;;19.50;80.00;;;;;;5040894;28;45425;-71
2023/05/09 01:45:30;;;;;;;4.28;2.92;;;19.50;80.00;;;;;;5039708;28;46531;-72
2023/05/09 01:47:58;;;;;;;5.47;3.10;;;19.50;80.10;;;;;;5040452;28;45342;-72
2023/05/09 01:50:25;;;;;;;3.58;2.70;;;19.50;80.10;;;;;;5040831;28;45371;-72
2023/05/09 01:52:55;;;;;;;5.72;3.00;;;19.50;80.00;;;;;;5040976;28;45376;-72
2023/05/09 01:55:24;;;;;;;5.43;2.60;;;19.50;79.90;;;;;;5040411;28;46595;-72
2023/05/09 01:57:52;;;;;;;4.95;2.90;;;19.50;79.90;;;;;;5040636;28;45313;-72
2023/05/09 02:00:19;;;;;;;3.45;2.50;;;19.50;79.70;;;;;;5036306;28;45284;-71
2023/05/09 02:02:48;;;;;;;4.10;2.92;;;19.50;79.70;;;;;;5039016;28;45294;-72
2023/05/09 02:05:16;;;;;;;3.88;2.55;;;19.60;79.70;;;;;;5039634;28;47970;-72
2023/05/09 02:07:44;;;;;;;5.07;3.47;;;19.60;79.70;;;;;;5040630;27;45262;-72
2023/05/09 02:10:13;;;;;;;6.00;3.00;;;19.60;79.70;;;;;;5040741;27;45356;-72
2023/05/09 02:12:40;;;;;;;3.72;2.65;;;19.60;79.60;;;;;;5040531;28;45461;-72
2023/05/09 02:15:08;;;;;;;4.07;2.78;;;19.60;79.70;;;;;;5039921;28;47098;-72
2023/05/09 02:17:34;;;;;;;4.40;2.92;;;19.60;79.90;;;;;;5040150;28;45333;-72
2023/05/09 02:20:04;;;;;;;5.03;2.72;;;19.60;80.00;;;;;;5040949;28;45408;-72
2023/05/09 02:22:31;;;;;;;3.35;2.67;;;19.50;80.00;;;;;;5040763;28;45420;-72
2023/05/09 02:24:59;;;;;;;4.00;2.80;;;19.60;80.10;;;;;;5039556;28;46614;-72
2023/05/09 02:27:26;;;;;;;4.70;2.83;;;19.60;80.10;;;;;;5040360;28;45399;-72
2023/05/09 02:29:57;;;;;;;4.05;2.70;;;19.50;80.00;;;;;;5039959;28;45404;-72
2023/05/09 02:32:27;;;;;;;4.95;3.17;;;19.50;80.00;;;;;;5039891;28;45351;-72
2023/05/09 02:34:55;;;;;;;5.85;3.13;;;19.50;80.00;;;;;;5041632;28;47363;-72
2023/05/09 02:37:24;;;;;;;4.35;3.08;;;19.50;80.00;;;;;;5043062;28;45465;-72
2023/05/09 02:39:51;;;;;;;4.45;3.00;;;19.50;80.00;;;;;;5043266;28;45292;-72
2023/05/09 02:42:23;;;;;;;5.80;2.92;;;19.50;80.00;;;;;;5043448;28;45252;-72
2023/05/09 02:44:50;;;;;;;3.70;2.85;;;19.50;80.00;;;;;;5043062;28;45740;-72
2023/05/09 02:47:17;;;;;;;4.20;2.85;;;19.50;79.90;;;;;;5042281;28;45297;-72
2023/05/09 02:49:44;;;;;;;4.55;3.17;;;19.50;79.90;;;;;;5043072;28;45357;-72
2023/05/09 02:52:11;;;;;;;6.15;3.33;;;19.50;79.80;;;;;;5043073;28;45502;-72
2023/05/09 02:54:40;;;;;;;4.00;2.75;;;19.50;79.90;;;;;;5042762;28;46220;-72
2023/05/09 02:57:07;;;;;;;4.60;2.80;;;19.50;80.00;;;;;;5042598;28;45414;-72
2023/05/09 02:59:33;;;;;;;4.20;3.22;;;19.50;80.00;;;;;;5042952;28;45365;-72
2023/05/09 03:02:00;;;;;;;4.95;3.15;;;19.50;80.10;;;;;;5041216;28;45395;-73
2023/05/09 03:04:27;;;;;;;3.78;2.80;;;19.50;80.10;;;;;;5041790;28;47345;-72
2023/05/09 03:06:54;;;;;;;3.92;2.80;;;19.50;80.10;;;;;;5042794;28;45330;-72
2023/05/09 03:09:21;;;;;;;5.07;3.13;;;19.50;80.20;;;;;;5043000;28;45285;-72
2023/05/09 03:11:49;;;;;;;3.78;2.63;;;19.50;80.20;;;;;;5043076;28;45430;-72
2023/05/09 03:14:17;;;;;;;3.83;2.88;;;19.50;80.10;;;;;;5042613;28;48380;-72
2023/05/09 03:16:43;;;;;;;3.55;2.63;;;19.50;80.20;;;;;;5042394;28;45260;-72
2023/05/09 03:19:10;;;;;;;6.20;3.25;;;19.50;80.10;;;;;;5042554;28;45248;-72
2023/05/09 03:21:37;;;;;;;3.92;2.70;;;19.50;80.20;;;;;;5042868;28;45685;-72
2023/05/09 03:24:04;;;;;;;4.53;3.05;;;19.50;80.10;;;;;;5042218;28;46600;-72
2023/05/09 03:26:31;;;;;;;5.28;3.58;;;19.50;80.20;;;;;;5042466;28;45222;-71
2023/05/09 03:28:59;;;;;;;4.43;3.05;;;19.50;80.20;;;;;;5042905;28;45240;-72
2023/05/09 03:31:26;;;;;;;4.15;2.80;;;19.50;80.30;;;;;;5042793;28;45563;-72
2023/05/09 03:33:53;;;;;;;5.75;2.97;;;19.50;80.30;;;;;;5042354;28;48300;-71
2023/05/09 03:36:20;;;;;;;4.18;2.95;;;19.50;80.30;;;;;;5042448;28;45284;-72
2023/05/09 03:38:46;;;;;;;4.43;3.40;;;19.50;80.10;;;;;;5042358;28;45236;-72
2023/05/09 03:41:15;;;;;;;5.88;3.20;;;19.50;80.10;;;;;;5043067;28;45338;-72
2023/05/09 03:43:42;;;;;;;4.80;3.28;;;19.50;80.00;;;;;;5041735;28;46401;-72
2023/05/09 03:46:10;;;;;;;5.13;3.35;;;19.50;80.10;;;;;;5040052;28;45357;-72
2023/05/09 03:48:37;;;;;;;4.60;2.95;;;19.50;80.30;;;;;;5041991;27;45210;-72
2023/05/09 03:51:04;;;;;;;5.10;3.40;;;19.50;80.30;;;;;;5041055;28;45338;-72
2023/05/09 03:53:31;;;;;;;6.40;3.33;;;19.50;80.50;;;;;;5041993;28;47591;-72
2023/05/09 03:55:57;;;;;;;5.53;3.17;;;19.50;80.50;;;;;;5041186;27;45231;-72
2023/05/09 03:58:24;;;;;;;4.50;3.17;;;19.50;80.50;;;;;;5042317;28;45310;-72
2023/05/09 04:00:51;;;;;;;4.57;3.30;;;19.50;80.50;;;;;;5035636;28;45558;-72
2023/05/09 04:03:19;;;;;;;5.47;3.15;;;19.50;80.40;;;;;;5035442;28;47159;-72
2023/05/09 04:05:46;;;;;;;6.68;3.63;;;19.50;80.50;;;;;;5041655;28;45703;-72
2023/05/09 04:08:13;;;;;;;4.32;2.78;;;19.50;80.50;;;;;;5042420;28;45342;-72
2023/05/09 04:10:40;;;;;;;4.72;3.20;;;19.50;80.50;;;;;;5042212;28;45762;-72
2023/05/09 04:13:07;;;;;;;4.43;2.90;;;19.50;80.40;;;;;;5042219;28;46399;-71
2023/05/09 04:15:33;;;;;;;4.60;3.03;;;19.50;80.40;;;;;;5022231;28;45354;-71
2023/05/09 04:18:00;;;;;;;4.30;2.92;;;19.50;80.40;;;;;;5042173;28;45313;-71
2023/05/09 04:20:30;;;;;;;4.10;2.83;;;19.50;80.30;;;;;;5042241;28;45457;-72
2023/05/09 04:22:57;;;;;;;4.95;3.00;;;19.50;80.10;;;;;;5042050;28;47339;-71
2023/05/09 04:25:24;;;;;;;4.05;2.90;;;19.50;80.20;;;;;;5041737;28;45353;-72
2023/05/09 04:27:51;;;;;;;3.72;2.78;;;19.50;80.20;;;;;;5041951;27;45401;-72
2023/05/09 04:30:18;;;;;;;4.13;3.03;;;19.50;80.40;;;;;;5042277;28;45184;-71
2023/05/09 04:32:45;;;;;;;6.05;3.30;;;19.50;80.40;;;;;;5042018;28;45305;-71
2023/05/09 04:35:12;;;;;;;5.75;3.25;;;19.50;80.50;;;;;;5041622;27;45282;-72
2023/05/09 04:37:40;;;;;;;4.97;3.40;;;19.50;80.50;;;;;;5041687;28;45273;-72
2023/05/09 04:40:09;;;;;;;4.60;3.30;;;19.50;80.60;;;;;;5041791;28;45330;-72
2023/05/09 04:42:36;;;;;;;5.15;3.60;;;19.50;80.70;;;;;;5041455;28;45298;-73
2023/05/09 04:45:03;;;;;;;7.35;2.90;;;19.50;80.70;;;;;;5021657;28;45279;-72
2023/05/09 04:47:30;;;;;;;5.80;3.50;;;19.50;80.70;;;;;;5021290;28;45437;-72
2023/05/09 04:49:56;;;;;;;4.32;3.20;;;19.50;80.60;;;;;;5040727;28;45282;-71
2023/05/09 04:52:23;;;;;;;4.93;3.00;;;19.50;80.60;;;;;;5039345;28;48279;-72
2023/05/09 04:54:51;;;;;;;4.50;3.10;;;19.50;80.50;;;;;;5040979;28;45391;-72
2023/05/09 04:57:18;;;;;;;4.45;3.08;;;19.50;80.70;;;;;;5041256;28;45136;-71
2023/05/09 04:59:45;;;;;;;5.43;3.30;;;19.50;80.50;;;;;;5041490;28;45678;-71
2023/05/09 05:02:12;;;;;;;4.85;3.00;;;19.50;80.40;;;;;;5040806;28;45346;-72
2023/05/09 05:04:39;;;;;;;5.05;3.38;;;19.50;80.40;;;;;;5041368;28;45258;-72
2023/05/09 05:07:06;;;;;;;4.53;3.15;;;19.50;80.30;;;;;;5041293;28;45298;-71
2023/05/09 05:09:32;;;;;;;4.43;3.10;;;19.50;80.40;;;;;;5041533;28;45391;-71
2023/05/09 05:12:00;;;;;;;4.85;3.40;;;19.60;80.50;;;;;;5041146;28;49096;-71
2023/05/09 05:14:27;;;;;;;5.03;3.63;;;19.60;80.60;;;;;;5041512;28;45407;-72
2023/05/09 05:16:54;;;;;;;3.85;2.75;;;19.50;80.50;;;;;;5040721;28;45424;-71
2023/05/09 05:19:21;;;;;;;3.65;2.90;;;19.50;80.60;;;;;;5041325;28;45201;-71
2023/05/09 05:21:47;;;;;;;4.55;3.13;;;19.50;81.70;;;;;;5041330;28;46041;-72
2023/05/09 05:24:14;;;;;;;5.22;3.33;;;19.50;80.60;;;;;;5041134;28;45149;-72
2023/05/09 05:26:41;;;;;;;4.47;2.85;;;19.50;80.60;;;;;;5041206;27;45376;-72
2023/05/09 05:29:09;;;;;;;4.40;3.00;;;19.50;80.60;;;;;;5041250;28;45402;-71
2023/05/09 05:31:36;;;;;;;3.60;2.75;;;19.50;80.50;;;;;;5040987;28;47098;-72
2023/05/09 05:34:02;;;;;;;5.32;3.45;;;19.50;80.60;;;;;;5040972;28;45340;-71
2023/05/09 05:36:30;;;;;;;3.75;2.78;;;19.50;80.50;;;;;;5040535;28;45246;-71
2023/05/09 05:38:57;;;;;;;3.47;2.67;;;19.50;80.50;;;;;;5040991;28;45566;-71
2023/05/09 05:41:24;;;;;;;4.07;2.80;;;19.50;80.40;;;;;;5040786;28;46391;-71
2023/05/09 05:43:50;;;;;;;3.03;2.45;;;19.50;80.30;;;;;;5040054;28;45608;-72
2023/05/09 05:46:18;;;;;;;3.45;2.85;;;19.60;80.30;;;;;;5040099;28;45166;-71
2023/05/09 05:48:45;;;;;;;4.10;2.53;;;19.50;80.20;;;;;;5041107;28;45414;-71
2023/05/09 05:51:12;;;;;;;4.40;2.30;;;19.60;80.20;;;;;;5039239;28;45651;-71
2023/05/09 05:53:39;;;;;;;3.58;2.63;;;19.60;80.10;;;;;;5040282;28;46102;-71
2023/05/09 05:56:06;;;;;;;4.13;2.53;;;19.60;80.10;;;;;;5040614;27;45318;-72
2023/05/09 05:58:33;;;;;;;3.10;2.15;;;19.60;80.10;;;;;;5040820;28;45271;-71
2023/05/09 06:01:00;;;;;;;3.28;2.60;;;19.50;80.00;;;;;;5040408;28;47388;-71
2023/05/09 06:03:28;;;;;;;3.20;2.40;;;19.50;80.20;;;;;;5039284;28;45269;-71
2023/05/09 06:05:55;;;;;;;3.28;2.45;;;19.50;80.20;;;;;;5040325;28;45237;-71
2023/05/09 06:08:22;;;;;;;3.08;2.50;;;19.50;80.30;;;;;;5040920;28;45303;-71
2023/05/09 06:10:49;;;;;;;4.78;3.00;;;19.50;80.40;;;;;;5043028;27;45313;-71
2023/05/09 06:13:15;;;;;;;3.55;2.60;;;19.50;80.50;;;;;;5043419;28;45270;-72
2023/05/09 06:15:42;;;;;;;4.28;2.40;;;19.50;80.70;;;;;;5043439;27;45276;-72
2023/05/09 06:18:09;;;;;;;4.65;3.17;;;19.50;80.70;;;;;;5044132;28;45263;-72
2023/05/09 06:20:37;;;;;;;3.78;2.63;;;19.50;80.80;;;;;;5043168;28;46734;-72
2023/05/09 06:23:04;;;;;;;4.03;2.78;;;19.50;80.60;;;;;;5043675;28;45355;-72
2023/05/09 06:25:31;;;;;;;4.50;2.65;;;19.50;80.50;;;;;;5043336;28;45410;-71
2023/05/09 06:27:58;;;;;;;5.03;3.03;;;19.50;80.50;;;;;;5043475;28;45326;-71
2023/05/09 06:30:24;;;;;;;3.72;2.10;;;19.60;80.60;;;;;;5043215;28;47484;-71
2023/05/09 06:32:51;;;;;;;3.33;2.65;;;19.60;80.40;;;;;;5043324;28;45229;-72
2023/05/09 06:35:18;;;;;;;4.32;2.55;;;19.60;80.40;;;;;;5043392;27;45318;-71
2023/05/09 06:37:46;;;;;;;4.22;2.80;;;19.60;80.30;;;;;;5043374;28;45524;-71
2023/05/09 06:40:13;;;;;;;4.32;2.63;;;19.60;80.30;;;;;;5043087;28;46593;-71
2023/05/09 06:42:39;;;;;;;3.40;2.78;;;19.60;80.30;;;;;;5043266;28;45390;-71
2023/05/09 06:45:07;;;;;;;4.03;3.03;;;19.60;80.50;;;;;;5042971;28;45178;-71
2023/05/09 06:47:34;;;;;;;4.82;3.38;;;19.60;80.70;;;;;;5043033;28;45592;-71
2023/05/09 06:50:01;;;;;;;4.22;3.10;;;19.60;80.90;;;;;;5042602;27;45373;-72
2023/05/09 06:52:27;;;;;;;5.95;3.25;;;19.60;80.90;;;;;;5040086;28;45470;-70
2023/05/09 06:54:56;;;;;;;5.05;3.35;;;19.60;81.00;;;;;;5043084;28;45344;-73
2023/05/09 06:57:22;;;;;;;4.15;2.90;;;19.60;81.00;;;;;;5043138;28;45477;-71
2023/05/09 06:59:49;;;;;;;4.28;2.92;;;19.50;81.00;;;;;;5042802;28;45219;-71
2023/05/09 07:02:16;;;;;;;3.42;2.53;;;19.60;81.20;;;;;;5041857;28;45457;-72
2023/05/09 07:04:43;;;;;;;4.28;2.75;;;19.60;81.30;;;;;;5042764;27;45268;-72
2023/05/09 07:07:09;;;;;;;5.40;3.17;;;19.60;81.20;;;;;;5042753;27;45289;-72
2023/05/09 07:09:36;;;;;;;4.15;3.22;;;19.50;80.80;;;;;;5042864;28;45342;-72
2023/05/09 07:12:05;;;;;;;3.65;2.70;;;19.60;80.90;;;;;;5042882;28;45394;-72
2023/05/09 07:14:32;;;;;;;5.00;2.80;;;19.60;80.70;;;;;;5042714;28;45432;-72
2023/05/09 07:16:59;;;;;;;3.38;2.53;;;19.60;80.70;;;;;;5042707;27;45312;-71
2023/05/09 07:19:25;;;;;;;3.22;2.58;;;19.60;80.60;;;;;;5042421;28;46378;-72
2023/05/09 07:21:52;;;;;;;4.30;3.03;;;19.60;80.70;;;;;;5041011;28;45294;-72
2023/05/09 07:24:19;;;;;;;3.45;2.63;;;19.60;80.70;;;;;;5042299;28;45340;-72
2023/05/09 07:26:46;;;;;;;3.33;2.42;;;19.60;80.70;;;;;;5042555;28;45241;-71
2023/05/09 07:29:14;;;;;;;3.38;2.70;;;19.60;80.80;;;;;;5042348;27;45437;-72
2023/05/09 07:31:41;;;;;;;3.53;2.85;;;19.60;81.00;;;;;;5042855;28;45397;-71
2023/05/09 07:34:07;;;;;;;3.53;2.38;;;19.60;81.30;;;;;;5042172;27;45250;-72
2023/05/09 07:36:36;;;;;;;4.47;2.97;;;19.60;81.20;;;;;;5042258;27;45406;-71
2023/05/09 07:39:03;;;;;;;3.20;2.55;;;19.60;81.40;;;;;;5042808;28;45409;-72
2023/05/09 07:41:30;;;;;;;3.50;2.75;;;19.60;82.30;;;;;;5042290;28;45376;-71
2023/05/09 07:43:57;;;;;;;3.63;2.30;;;19.60;81.10;;;;;;5037206;28;45499;-72
2023/05/09 07:46:25;;;;;;;2.88;2.45;;;19.60;80.90;;;;;;5041580;28;45423;-72
2023/05/09 07:48:52;;;;;;;2.80;2.20;;;19.60;80.70;;;;;;5041484;28;47547;-72
2023/05/09 07:51:19;;;;;;;2.95;1.98;;;19.60;80.60;;;;;;5042123;28;45277;-71
2023/05/09 07:53:46;;;;;;;2.95;1.98;;;19.60;80.40;;;;;;5042130;28;45340;-72
2023/05/09 07:56:12;;;;;;;2.85;2.05;;;19.60;80.30;;;;;;5042507;28;45426;-72
2023/05/09 07:58:39;;;;;;;2.90;2.10;;;19.60;80.20;;;;;;5042127;28;47976;-72
2023/05/09 08:01:06;;;;;;;2.40;1.80;;;19.60;80.00;;;;;;5042108;28;45262;-72
2023/05/09 08:03:34;;;;;;;2.47;1.92;;;19.60;80.00;;;;;;5042559;28;45286;-72
2023/05/09 08:06:00;;;;;;;2.45;1.77;;;19.60;79.90;;;;;;5042201;28;45602;-72
2023/05/09 08:08:27;;;;;;;2.28;1.70;;;19.60;79.80;;;;;;5042265;28;48239;-71
2023/05/09 08:10:54;;;;;;;2.00;1.80;;;19.60;79.80;;;;;;5042260;28;45257;-71
2023/05/09 08:13:21;;;;;;;1.98;1.63;;;19.60;79.80;;;;;;5042165;28;45272;-71
2023/05/09 08:15:48;;;;;;;2.40;1.83;;;19.60;79.80;;;;;;5041842;28;45476;-72
2023/05/09 08:18:14;;;;;;;1.85;1.50;;;19.60;79.80;;;;;;5042183;28;45357;-71
2023/05/09 08:20:43;;;;;;;2.33;1.70;;;19.60;79.80;;;;;;5041844;28;46225;-72
2023/05/09 08:23:10;;;;;;;2.33;1.92;;;19.60;79.80;;;;;;5042312;28;45157;-71
2023/05/09 08:25:36;;;;;;;2.25;1.55;;;19.60;79.70;;;;;;5041842;28;45669;-72
2023/05/09 08:28:03;;;;;;;1.85;1.50;;;19.60;79.80;;;;;;5033954;28;47428;-71
2023/05/09 08:30:30;;;;;;;2.75;1.83;;;19.60;79.80;;;;;;5042212;28;45326;-71
2023/05/09 08:32:57;;;;;;;2.40;1.63;;;19.60;79.80;;;;;;5041533;28;45296;-69
2023/05/09 08:35:24;;;;;;;1.67;1.50;;;19.60;79.70;;;;;;5041530;28;45141;-71
2023/05/09 08:37:52;;;;;;;1.60;1.40;;;19.60;79.60;;;;;;5041405;28;45496;-72
2023/05/09 08:40:19;;;;;;;2.85;1.60;;;19.60;79.50;;;;;;5041794;28;45449;-71
2023/05/09 08:42:45;;;;;;;1.85;1.52;;;19.60;79.50;;;;;;5041831;28;45425;-72
2023/05/09 08:45:14;;;;;;;1.63;1.40;;;19.60;79.40;;;;;;5041404;28;45336;-71
2023/05/09 08:47:41;;;;;;;1.65;1.50;;;19.60;80.40;;;;;;5041340;28;47960;-72
2023/05/09 08:50:10;;;;;;;1.73;1.33;;;19.60;79.30;;;;;;5041123;28;45447;-71
2023/05/09 08:52:37;;;;;;;1.40;1.30;;;19.60;79.20;;;;;;5041648;28;45285;-71
2023/05/09 08:55:06;;;;;;;2.03;1.40;;;19.70;79.40;;;;;;5033916;28;45667;-71
2023/05/09 08:57:34;;;;;;;1.35;1.20;;;19.70;79.40;;;;;;5041267;28;47528;-72
2023/05/09 09:00:01;;;;;;;1.25;1.13;;;19.60;79.30;;;;;;5041180;27;45266;-71
2023/05/09 09:02:27;;;;;;;2.25;1.20;;;19.60;79.30;;;;;;5041574;28;45282;-72
2023/05/09 09:04:55;;;;;;;1.30;1.20;;;19.70;79.40;;;;;;5041138;28;45421;-72
2023/05/09 09:07:22;;;;;;;1.40;1.15;;;19.60;79.20;;;;;;5041409;28;45746;-71
2023/05/09 09:09:50;;;;;;;2.00;1.30;;;19.60;79.20;;;;;;5041232;28;45625;-71
2023/05/09 09:12:21;;;;;;;1.70;1.20;;;19.60;79.10;;;;;;5041295;28;45377;-71
2023/05/09 09:14:52;;;;;;;1.20;1.10;;;19.60;79.00;;;;;;5041383;28;45304;-73
2023/05/09 09:17:20;;;;;;;1.33;1.17;;;19.60;78.90;;;;;;5040766;28;48303;-71
2023/05/09 09:19:49;;;;;;;1.88;1.35;;;19.60;78.90;;;;;;5041002;28;45468;-71
2023/05/09 09:22:19;;;;;;;1.50;1.25;;;19.60;78.80;;;;;;5040905;28;45344;-72
2023/05/09 09:24:46;;;;;;;1.25;1.15;;;19.60;78.80;;;;;;5041306;27;45305;-71
2023/05/09 09:27:12;;;;;;;1.20;1.10;;;19.70;78.70;;;;;;5040374;28;47514;-71
2023/05/09 09:29:41;;;;;;;1.33;1.17;;;19.70;78.70;;;;;;5040831;28;45293;-71
2023/05/09 09:32:08;;;;;;;2.53;0.93;;;19.70;78.60;;;;;;5040937;28;45533;-72
2023/05/09 09:34:35;;;;;;;1.20;1.10;;;19.70;78.60;;;;;;5041147;28;45215;-71
2023/05/09 09:37:01;;;;;;;0.98;0.90;;;19.70;78.50;;;;;;5039945;28;47531;-72
2023/05/09 09:39:28;;;;;;;1.10;1.00;;;19.70;78.50;;;;;;5040791;28;45271;-71
2023/05/09 09:41:55;;;;;;;1.83;1.00;;;19.70;79.50;;;;;;5040537;28;45329;-71
2023/05/09 09:44:22;;;;;;;1.75;1.20;;;19.70;78.60;;;;;;5041954;28;45453;-71
2023/05/09 09:46:52;;;;;;;1.00;0.90;;;19.70;78.50;;;;;;5043017;28;46405;-71
2023/05/09 09:49:20;;;;;;;1.08;0.98;;;19.70;78.60;;;;;;5043965;28;45209;-72
2023/05/09 09:51:51;;;;;;;1.27;1.00;;;19.70;78.50;;;;;;5043778;28;45377;-72
2023/05/09 09:54:18;;;;;;;0.80;0.80;;;19.70;78.40;;;;;;5043743;28;45253;-71
2023/05/09 09:56:46;;;;;;;1.38;1.10;;;19.70;78.40;;;;;;5043358;28;46554;-72
2023/05/09 09:59:15;;;;;;;1.13;0.95;;;19.70;78.40;;;;;;5041478;28;45491;-71
2023/05/09 10:02:04;;;;;;;1.73;1.20;;;19.70;78.40;;;;;;5039448;28;45133;-72
2023/05/09 10:04:32;;;;;;;0.90;0.75;;;19.70;78.40;;;;;;5044418;28;45247;-72
2023/05/09 10:07:02;;;;;;;1.50;1.10;;;19.70;78.30;;;;;;5043356;28;45362;-72
2023/05/09 10:09:29;;;;;;;1.08;0.98;;;19.70;79.10;;;;;;5043602;28;46236;-71
2023/05/09 10:11:59;;;;;;;0.88;0.88;;;19.70;78.10;;;;;;5043759;27;45457;-72
2023/05/09 10:14:26;;;;;;;1.33;0.90;;;19.70;78.00;;;;;;5043976;28;45235;-72
2023/05/09 10:16:56;;;;;;;1.70;0.85;;;19.70;78.00;;;;;;5037965;27;46544;-72
2023/05/09 10:19:26;;;;;;;1.35;1.00;;;19.70;78.00;;;;;;5043599;28;45275;-72
2023/05/09 10:21:55;;;;;;;1.10;0.88;;;19.70;78.00;;;;;;5043303;27;45291;-72
2023/05/09 10:24:28;;;;;;;0.80;0.80;;;19.70;78.00;;;;;;5043374;28;45258;-71
2023/05/09 10:27:02;;;;;;;1.15;0.90;;;19.70;78.00;;;;;;5040329;28;46313;-71
2023/05/09 10:29:34;;;;;;;1.00;0.90;;;19.70;78.00;;;;;;5043329;28;45379;-71
2023/05/09 10:32:08;;;;;;;0.93;0.82;;;19.70;78.00;;;;;;5042905;28;45284;-71
2023/05/09 10:34:40;;;;;;;1.42;1.10;;;19.70;78.00;;;;;;5042387;28;45415;-72
2023/05/09 10:37:08;;;;;;;0.60;0.60;;;19.70;78.00;;;;;;5035790;28;47098;-73
2023/05/09 10:39:37;;;;;;;2.42;0.95;;;19.70;78.00;;;;;;5043560;28;45334;-71
2023/05/09 10:42:05;;;;;;;1.17;0.82;;;19.70;78.00;;;;;;5035194;28;45261;-72
2023/05/09 10:44:33;;;;;;;1.13;0.88;;;19.70;78.00;;;;;;5043470;27;45184;-72
2023/05/09 10:47:01;;;;;;;1.10;0.90;;;19.70;78.00;;;;;;5042147;28;47189;-71
2023/05/09 10:49:28;;;;;;;1.02;0.77;;;19.70;78.00;;;;;;5043175;28;45395;-72
2023/05/09 10:51:56;;;;;;;0.98;0.80;;;19.70;78.00;;;;;;5043103;28;45294;-71
2023/05/09 10:54:27;;;;;;;0.77;0.77;;;19.70;78.00;;;;;;5042976;28;45591;-71
2023/05/09 10:56:54;;;;;;;0.80;0.70;;;19.70;78.00;;;;;;5041942;28;46389;-72
2023/05/09 10:59:37;;;;;;;1.67;0.95;;;19.70;78.00;;;;;;5039428;27;45325;-72
2023/05/09 11:02:11;;;;;;;2.13;0.73;;;19.70;78.00;;;;;;5041987;28;45458;-72
2023/05/09 11:04:40;;;;;;;0.73;0.73;;;19.70;78.00;;;;;;5042784;28;45400;-72
2023/05/09 11:07:23;;;;;;;1.95;0.90;;;19.70;78.00;;;;;;5042437;28;47081;-72
2023/05/09 11:09:51;;;;;;;1.13;0.85;;;19.70;78.00;;;;;;5042957;28;45345;-72
2023/05/09 11:12:20;;;;;;;1.00;0.80;;;19.70;78.00;;;;;;5042929;28;45423;-72
2023/05/09 11:14:50;;;;;;;1.33;0.90;;;19.70;78.00;;;;;;5043055;28;45415;-72
2023/05/09 11:17:29;;;;;;;1.00;0.75;;;19.70;78.00;;;;;;5042412;28;46360;-71
2023/05/09 11:20:01;;;;;;;1.02;0.80;;;19.70;78.00;;;;;;5042868;28;45356;-71
2023/05/09 11:22:31;;;;;;;1.15;0.80;;;19.70;78.00;;;;;;5042163;28;45295;-71
2023/05/09 11:25:05;;;;;;;1.50;0.82;;;19.70;78.00;;;;;;5042761;28;45382;-72
2023/05/09 11:27:43;;;;;;;0.93;0.80;;;19.70;78.00;;;;;;5042853;28;47158;-71
2023/05/09 11:30:13;;;;;;;1.38;0.90;;;19.70;78.00;;;;;;5042611;28;45253;-72
2023/05/09 11:32:45;;;;;;;0.70;0.70;;;19.70;78.00;;;;;;5042263;27;45413;-72
2023/05/09 11:35:14;;;;;;;0.60;0.60;;;19.70;78.00;;;;;;5042330;28;45292;-71
2023/05/09 11:37:54;;;;;;;0.70;0.70;;;19.70;78.00;;;;;;5042296;28;46325;-71
2023/05/09 11:40:21;;;;;;;1.02;0.93;;;19.70;79.00;;;;;;5042834;28;45411;-71
2023/05/09 11:42:52;;;;;;;0.80;0.80;;;19.70;78.00;;;;;;5028408;28;45302;-72
2023/05/09 11:45:19;;;;;;;0.75;0.73;;;19.70;78.00;;;;;;5041792;28;45246;-72
2023/05/09 11:47:47;;;;;;;1.38;0.75;;;19.70;78.00;;;;;;5041921;27;46552;-71
2023/05/09 11:50:18;;;;;;;0.90;0.60;;;19.70;78.00;;;;;;5042041;28;45296;-71
2023/05/09 11:52:46;;;;;;;0.80;0.80;;;19.70;78.00;;;;;;5042493;28;45175;-71
2023/05/09 11:55:16;;;;;;;1.00;0.90;;;19.70;78.00;;;;;;5042622;28;45315;-71
2023/05/09 11:57:45;;;;;;;1.10;1.00;;;19.70;78.00;;;;;;5042556;28;47415;-71
2023/05/09 12:00:15;;;;;;;1.50;0.70;;;19.70;78.00;;;;;;5042430;28;45297;-71
2023/05/09 12:02:44;;;;;;;0.60;0.60;;;19.70;78.00;;;;;;5042211;28;45419;-72
2023/05/09 12:05:12;;;;;;;0.60;0.60;;;19.70;78.00;;;;;;5042452;28;45379;-72
2023/05/09 12:07:40;;;;;;;0.60;0.60;;;19.70;78.00;;;;;;5041327;28;46046;-72
2023/05/09 12:10:08;;;;;;;0.85;0.70;;;19.70;78.00;;;;;;5042274;27;45170;-72
2023/05/09 12:12:36;;;;;;;0.68;0.68;;;19.70;78.00;;;;;;5042318;28;45332;-72
2023/05/09 12:15:06;;;;;;;0.63;0.57;;;19.70;78.00;;;;;;5041603;28;45575;-72
2023/05/09 12:17:33;;;;;;;0.70;0.70;;;19.70;78.00;;;;;;5041626;28;47509;-71
2023/05/09 12:20:03;;;;;;;0.57;0.57;;;19.70;78.00;;;;;;5042421;28;45290;-72
2023/05/09 12:22:30;;;;;;;0.63;0.60;;;19.70;78.00;;;;;;5042083;28;45334;-72
2023/05/09 12:24:58;;;;;;;0.80;0.80;;;19.70;78.00;;;;;;5041458;28;45255;-71
2023/05/09 12:27:27;;;;;;;0.80;0.65;;;19.70;78.00;;;;;;5041964;28;47122;-72
2023/05/09 12:29:55;;;;;;;1.27;0.63;;;19.70;78.00;;;;;;5042244;28;45913;-72
2023/05/09 12:32:22;;;;;;;1.27;0.80;;;19.70;78.00;;;;;;5041913;28;45285;-72
2023/05/09 12:34:50;;;;;;;0.63;0.63;;;19.70;78.00;;;;;;5041735;28;45599;-72
2023/05/09 12:37:18;;;;;;;1.98;1.00;;;19.70;78.00;;;;;;5041264;28;46861;-71
2023/05/09 12:39:59;;;;;;;0.80;0.70;;;19.80;78.10;;;;;;5041969;28;45214;-71
2023/05/09 12:42:27;;;;;;;3.20;0.80;;;19.70;78.00;;;;;;5041783;28;45295;-72
2023/05/09 12:44:56;;;;;;;0.82;0.80;;;19.70;78.00;;;;;;5041670;28;45439;-71
2023/05/09 12:47:27;;;;;;;1.17;1.00;;;19.70;78.00;;;;;;5040860;28;46405;-71
2023/05/09 12:49:57;;;;;;;1.20;1.08;;;19.70;78.00;;;;;;5041644;28;45335;-71
2023/05/09 12:52:24;;;;;;;0.90;0.90;;;19.70;78.00;;;;;;5041809;28;45172;-72